Ship Status Report: callsign AMOUK29

sailwx.info

Track history (hours):
 
Tides and Currents Weather Stations Pressure Air Temp Water Temp Dewpoint Dewpoint Depression Visibility Wind Speed Wind Dir Waves Ship Positions

Callsign AMOUK29 (name unknown)

Last reported at 2016-May-28 07:00 UTC. Time now 2016-May-28 08:03 UTC.
Position N 54°36' W 005°54'.

Barometer 1017.8 mb
Air temperature 12.4 ° C
Dewpoint 9.6 ° C

Date/timePositionNaut miles runAvg speedWind from/ knotsBaromVisibWave heightAir tempDewpointWater temp
2016-May-28 07:00N 54°36' W 005°54'0 0.0 1017.8 12.4 9.6
2016-May-28 05:00N 54°36' W 005°54'0 0.0 1017.7 11.4 9.1
2016-May-28 04:00N 54°36' W 005°54'0 0.0 1017.7 10.6 8.6
2016-May-28 03:00N 54°36' W 005°54'0 0.0 1017.9 10.6 8.9
2016-May-28 02:00N 54°36' W 005°54'0 0.0 1018.1 11.4 9.5
2016-May-28 01:00N 54°36' W 005°54'0 0.0 1018.3 11.7 9.6
2016-May-28 00:00N 54°36' W 005°54'0 0.0 1018.6 11.7 9.7
2016-May-27 23:00N 54°36' W 005°54'0 0.0 1018.8 12.0 9.9
2016-May-27 22:00N 54°36' W 005°54'0 0.0 1019.0 12.1 9.8
2016-May-27 19:00N 54°36' W 005°54'0 0.0 1018.6 14.2 9.2
2016-May-27 18:00N 54°36' W 005°54'0 0.0 1018.7 13.8 9.3
2016-May-27 17:00N 54°36' W 005°54'0 0.0 1018.4 13.4 9.2
2016-May-27 16:00N 54°36' W 005°54'0 0.0 1018.4 14.0 9.6
2016-May-27 15:00N 54°36' W 005°54'0 0.0 1018.5 14.010.1
2016-May-27 14:00N 54°36' W 005°54'0 0.0 1018.8 13.9 9.9
2016-May-27 13:00N 54°36' W 005°54'0 0.0 1019.1 13.4 9.4
2016-May-27 12:00N 54°36' W 005°54'0 0.0 1019.1 14.0 9.7
2016-May-27 11:00N 54°36' W 005°54'0 0.0 1019.2 12.5 9.8
2016-May-27 10:00N 54°36' W 005°54'0 0.0 1019.3 11.610.5
2016-May-27 09:00N 54°36' W 005°54'0 0.0 1019.2 11.110.2
2016-May-27 08:00N 54°36' W 005°54'0 0.0 1018.8 11.310.3
2016-May-27 07:00N 54°36' W 005°54'0 0.0 1018.6 10.7 9.6
2016-May-27 06:00N 54°36' W 005°54'0 0.0 1018.3 10.4 9.2
2016-May-27 05:00N 54°36' W 005°54'0 0.0 1018.0 10.4 9.3
2016-May-27 04:00N 54°36' W 005°54'0 0.0 1017.9 10.3 9.2
2016-May-27 03:00N 54°36' W 005°54'0 0.0 1017.8 10.6 9.3
2016-May-27 02:00N 54°36' W 005°54'0 0.0 1017.9 10.5 9.6
2016-May-27 01:00N 54°36' W 005°54'0 0.0 1018.0 10.6 9.7
2016-May-27 00:00N 54°36' W 005°54'0 0.0 1018.1 10.4 9.3
2016-May-26 23:00N 54°36' W 005°54'0 0.0 1018.2 10.6 9.4
2016-May-26 22:00N 54°36' W 005°54'0 0.0 1018.2 10.4 9.1
2016-May-26 21:00N 54°36' W 005°54'0 0.0 1018.2 10.6 8.9
2016-May-26 20:00N 54°36' W 005°54'0 0.0 1017.9 10.6 8.9
2016-May-26 19:00N 54°36' W 005°54'0 0.0 1017.7 10.3 8.7
2016-May-26 18:00N 54°36' W 005°54'0 0.0 1017.7 10.5 8.9
2016-May-26 17:00N 54°36' W 005°54'0 0.0 1017.8 10.8 8.8
2016-May-26 16:00N 54°36' W 005°54'0 0.0 1017.9 10.5 8.9
2016-May-26 15:00N 54°36' W 005°54'0 0.0 1018.1 10.7 9.1
2016-May-26 13:00N 54°36' W 005°54'0 0.0 1018.3 10.6 8.5
2016-May-26 12:00N 54°36' W 005°54'0 0.0 1018.4 10.7 7.8
2016-May-26 11:00N 54°36' W 005°54'0 0.0 1018.4 10.7 7.5
2016-May-26 10:00N 54°36' W 005°54'0 0.0 1018.6 10.8 7.3
2016-May-26 09:00N 54°36' W 005°54'0 0.0 1018.6 10.5 7.6
2016-May-26 08:00N 54°36' W 005°54'0 0.0 1018.7 10.3 7.4
2016-May-26 07:00N 54°36' W 005°54'0 0.0 1018.7 10.6 7.7
2016-May-26 06:00N 54°36' W 005°54'0 0.0 1018.7 10.1 7.4
2016-May-26 05:00N 54°36' W 005°54'0 0.0 1018.8 9.3 7.5
2016-May-26 04:00N 54°36' W 005°54'0 0.0 1018.7 9.7 6.8
2016-May-26 03:00N 54°36' W 005°54'0 0.0 1018.9 10.0 6.7
2016-May-26 02:00N 54°36' W 005°54'0 0.0 1018.8 10.6 6.5
2016-May-26 01:00N 54°36' W 005°54'0 0.0 1019.0 11.0 5.7
2016-May-26 00:00N 54°36' W 005°54'0 0.0 1019.5 11.1 4.7
2016-May-25 23:00N 54°36' W 005°54'0 0.0 1019.9 11.1 4.5
2016-May-25 21:00N 54°36' W 005°54'0 0.0 1020.4 11.8 3.7
2016-May-25 20:00N 54°36' W 005°54'0 0.0 1020.3 11.7 4.1
2016-May-25 18:00N 54°36' W 005°54'0 0.0 1020.5 12.4 5.4
2016-May-25 17:00N 54°36' W 005°54'0 0.0 1020.5 12.3 4.2
2016-May-25 16:00N 54°36' W 005°54'0 0.0 1021.1 11.6 4.0
2016-May-25 15:00N 54°36' W 005°54'0 0.0 1021.6 11.3 3.7
2016-May-25 14:00N 54°36' W 005°54'0 0.0 1022.0 11.2 2.0
2016-May-25 13:00N 54°36' W 005°54'0 0.0 1022.5 10.4 2.1
2016-May-25 12:00N 54°36' W 005°54'7 6.9 1022.8 10.9 2.6
2016-May-25 11:00N 54°42' W 005°48'7 6.9 1023.3 8.8 3.2
2016-May-25 10:00N 54°42' W 005°36'6 6.0 1023.7 9.2 2.6
2016-May-25 09:00N 54°48' W 005°36'6 6.0 1023.7 7.8 2.6
2016-May-25 08:00N 54°42' W 005°36'3 3.5 1023.7 7.9 2.4
2016-May-25 07:00N 54°42' W 005°42'7 6.9 1024.1 8.7 2.6
2016-May-25 06:00N 54°42' W 005°30'9 9.2 1024.3 9.4 1.7
2016-May-25 05:00N 54°48' W 005°18'3 3.5 1024.3 9.2 2.0
2016-May-25 04:00N 54°48' W 005°12'7 6.9 1024.2 8.9 2.8
2016-May-25 03:00N 54°42' W 005°06'0 0.0 1024.3 8.4 3.7
2016-May-25 02:00N 54°42' W 005°06'0 0.0 1024.1 8.7 3.6
2016-May-25 01:00N 54°42' W 005°06'3 3.5 1024.0 9.1 4.8
2016-May-25 00:00N 54°42' W 005°00'1212.5 1023.9 9.4 4.9
2016-May-24 23:00N 54°30' W 004°54'9 4.6 1023.5 10.3 5.5
2016-May-24 21:00N 54°24' W 005°06'7 6.9 1022.6 11.7 7.5
2016-May-24 20:00N 54°18' W 005°12'9 9.2 1022.5 12.1 8.2
2016-May-24 19:00N 54°24' W 005°24'6 6.0 1023.2 12.0 8.2
2016-May-24 18:00N 54°18' W 005°24'7 6.9 1023.0 11.4 9.5
2016-May-24 17:00N 54°12' W 005°18'0 0.0 1023.4 11.8 9.3
2016-May-24 16:00N 54°12' W 005°18'4 3.5 1023.3 12.210.2
2016-May-24 15:00N 54°12' W 005°24'7 7.0 1023.3 11.5 9.9
2016-May-24 14:00N 54°12' W 005°36'9 9.2 1023.7 11.410.1
2016-May-24 13:00N 54°06' W 005°24'4 3.5 1023.6 11.2 9.4
2016-May-24 12:00N 54°06' W 005°30'4 3.5 1023.7 11.0 9.3
2016-May-24 11:00N 54°06' W 005°36'6 6.0 1024.0 10.5 9.4
2016-May-24 10:00N 54°00' W 005°36'4 3.5 1024.0 10.7 9.4
2016-May-24 09:00N 54°00' W 005°42'6 6.0 1024.2 10.6 9.0
2016-May-24 08:00N 54°06' W 005°42'7 7.0 1024.4 9.7 8.1
2016-May-24 07:00N 54°06' W 005°54'1110.6 1024.5 10.9 8.0
2016-May-24 06:00N 54°06' W 005°36'7 7.0 1024.4 9.3 8.1
2016-May-24 05:00N 54°06' W 005°24'1110.6 1023.9 9.7 8.7
2016-May-24 04:00N 54°06' W 005°06'7 7.0 1023.5 9.9 9.0
2016-May-24 03:00N 54°06' W 004°54'0 0.0 1023.1 10.1 9.1
2016-May-24 02:00N 54°06' W 004°54'7 7.0 1023.2 10.2 9.0
2016-May-24 01:00N 54°06' W 005°06'6 6.0 1023.4 10.4 8.7
2016-May-24 00:00N 54°12' W 005°06'7 7.0 1023.4 10.1 8.7
2016-May-23 23:00N 54°12' W 005°18'6 6.0 1023.8 10.4 7.7
2016-May-23 22:00N 54°06' W 005°18'1110.6 1023.9 11.1 7.9
2016-May-23 21:00N 54°06' W 005°36'9 9.3 1024.0 11.0 8.7
2016-May-23 20:00N 54°00' W 005°48'7 7.1 1023.6 11.8 9.4
2016-May-23 19:00N 54°00' W 006°00'7 7.0 1023.4 12.6 8.2
2016-May-23 18:00N 53°54' W 006°06'0 0.0 1023.1 12.9 7.4
2016-May-23 17:00N 53°54' W 006°06'7 7.0 1023.0 13.2 7.7
2016-May-23 16:00N 53°48' W 006°00'7 7.1 1023.0 12.6 6.5
2016-May-23 15:00N 53°48' W 005°48'4 3.5 1022.7 11.9 7.1
2016-May-23 14:00N 53°48' W 005°42'4 3.5 1022.7 11.5 6.9
2016-May-23 13:00N 53°48' W 005°36'0 0.0 1022.5 11.1 6.9
2016-May-23 12:00N 53°48' W 005°36'0 0.0 1022.2 11.0 6.6
2016-May-23 11:00N 53°48' W 005°36'0 0.0 1021.9 11.6 6.5
2016-May-23 10:00N 53°48' W 005°36'0 0.0 1021.7 10.8 6.5
2016-May-23 09:00N 53°48' W 005°36'0 0.0 1021.1 10.1 6.3
2016-May-23 08:00N 53°48' W 005°36'0 0.0 1020.7 10.9 6.2
2016-May-23 07:00N 53°48' W 005°36'9 9.3 1020.0 9.6 6.2
2016-May-23 06:00N 53°54' W 005°24'0 0.0 1018.8 9.7 6.8
2016-May-23 05:00N 53°54' W 005°24'7 7.0 1018.3 9.7 6.5
2016-May-23 04:00N 53°48' W 005°18'9 9.3 1018.1 9.8 6.8
2016-May-23 03:00N 53°54' W 005°06'7 7.1 1017.0 9.7 7.3
2016-May-23 02:00N 53°54' W 005°18'7 7.1 1016.5 11.2 7.4
2016-May-23 01:00N 53°54' W 005°30'1110.6 1016.0 10.1 6.6
2016-May-23 00:00N 53°54' W 005°48'7 7.1 1015.6 10.1 6.6
2016-May-22 23:00N 53°54' W 006°00'0 0.0 1015.1 10.4 6.0
2016-May-22 22:00N 53°54' W 006°00'9 9.3 1014.0 11.0 5.9
2016-May-22 21:00N 53°48' W 005°48'7 7.1 1013.0 11.1 7.1
2016-May-22 20:00N 53°48' W 005°36'4 3.5 1012.3 11.3 8.1
2016-May-22 19:00N 53°48' W 005°42'7 7.1 1011.9 12.0 7.6
2016-May-22 18:00N 53°48' W 005°54'7 7.0 1011.1 12.1 8.5
2016-May-22 17:00N 53°54' W 006°00'7 3.5 1010.8 11.0 7.5
2016-May-22 15:00N 53°48' W 006°06'12 6.1 1009.2 12.2 7.6
2016-May-22 13:00N 53°42' W 005°48'4 3.6 1008.0 12.3 7.7
2016-May-22 12:00N 53°42' W 005°42'6 6.0 1007.7 11.2 8.3
2016-May-22 11:00N 53°36' W 005°42'7 7.1 1007.4 11.1 6.8
2016-May-22 10:00N 53°36' W 005°54'4 3.6 1007.5 12.0 7.9
2016-May-22 09:00N 53°36' W 006°00'6 3.0 1007.1 10.7 7.4
2016-May-22 07:00N 53°42' W 006°00'7 7.0 1005.4 9.0 6.9
2016-May-22 06:00N 53°36' W 005°54'4 3.6 1005.3 9.1 7.1
2016-May-22 05:00N 53°36' W 006°00'0 0.0 1004.6 8.8 6.6
2016-May-22 04:00N 53°36' W 006°00'1212.0 1004.1 8.8 7.1
2016-May-22 03:00N 53°24' W 006°00'7 7.0 1003.7 9.9 7.3
2016-May-22 02:00N 53°18' W 005°54'6 6.0 1003.3 10.7 7.6
2016-May-22 01:00N 53°24' W 005°54'6 6.0 1003.2 10.7 7.6
2016-May-22 00:00N 53°30' W 005°54'6 6.0 1002.6 10.9 8.5
2016-May-21 23:00N 53°36' W 005°54'9 9.3 1002.0 10.9 7.3
2016-May-21 22:00N 53°42' W 005°42'7 7.1 1001.9 10.8 6.7
2016-May-21 21:00N 53°42' W 005°30'7 7.1 1002.1 10.7 9.0
2016-May-21 20:00N 53°42' W 005°18'7 7.0 1002.3 11.1 9.4
2016-May-21 19:00N 53°36' W 005°24'7 7.1 1002.1 11.6 9.5
2016-May-21 18:00N 53°36' W 005°36'7 7.1 1001.7 11.2 9.4
2016-May-21 17:00N 53°36' W 005°48'6 3.0 1001.2 11.2 8.9
2016-May-21 15:00N 53°30' W 005°48'9 9.3 1001.4 12.0 9.9
2016-May-21 14:00N 53°24' W 006°00'6 6.0 1000.8 12.6 9.4
2016-May-21 13:00N 53°18' W 006°00'7 7.0 1000.2 12.810.1
2016-May-21 12:00N 53°24' W 005°54'4 3.6 1000.1 11.5 9.2
2016-May-21 11:00N 53°24' W 005°48'7 7.2 1000.5 11.4 9.1
2016-May-21 10:00N 53°24' W 005°36'7 7.2 1000.5 10.9 9.0
2016-May-21 09:00N 53°24' W 005°24'7 7.2 1000.8 11.010.2
2016-May-21 08:00N 53°24' W 005°12'4 3.6 1000.2 10.5 9.8
2016-May-21 07:00N 53°24' W 005°06'6 6.0 999.8 10.8 9.9
2016-May-21 06:00N 53°30' W 005°06'0 0.0 999.3 10.8 9.7
2016-May-21 05:00N 53°30' W 005°06'6 6.0 1000.2 11.4 9.9
2016-May-21 04:00N 53°24' W 005°06'7 7.2 1001.1 11.310.4
2016-May-21 03:00N 53°24' W 005°18'7 7.2 1001.2 10.810.0
2016-May-21 02:00N 53°24' W 005°30'7 7.0 1001.4 10.910.4
2016-May-21 01:00N 53°18' W 005°36'6 6.0 1001.1 10.610.3
2016-May-21 00:00N 53°24' W 005°36'1212.0 1001.9 10.2 9.9
2016-May-20 23:00N 53°36' W 005°36'7 7.1 1002.8 10.2 9.9
2016-May-20 22:00N 53°36' W 005°24'7 7.1 1004.1 10.510.1
2016-May-20 21:00N 53°36' W 005°12'4 3.6 1004.9 10.510.0
2016-May-20 20:00N 53°36' W 005°06'6 6.0 1005.9 10.5 9.9
2016-May-20 19:00N 53°42' W 005°06'0 0.0 1006.1 10.4 9.7
2016-May-20 18:00N 53°42' W 005°06'1212.0 1006.6 10.5 9.7
2016-May-20 17:00N 53°54' W 005°06'0 0.0 1007.3 10.5 9.6
2016-May-20 16:00N 53°54' W 005°06'7 7.1 1008.3 10.4 9.4
2016-May-20 15:00N 53°54' W 004°54'7 7.0 1009.8 11.7 9.5
2016-May-20 14:00N 53°48' W 004°48'9 9.3 1009.9 10.4 9.0
2016-May-20 13:00N 53°54' W 004°36'4 3.5 1010.3 10.6 8.7
2016-May-20 12:00N 53°54' W 004°30'4 3.5 1010.6 10.3 8.6
2016-May-20 11:00N 53°54' W 004°24'6 6.0 1011.0 10.4 8.8
2016-May-20 10:00N 53°48' W 004°24'7 7.0 1011.2 10.6 9.0
2016-May-20 09:00N 53°42' W 004°18'1110.7 1010.9 10.8 8.4
2016-May-20 08:00N 53°42' W 004°36'7 7.1 1010.6 11.2 8.9
2016-May-20 07:00N 53°42' W 004°48'7 7.0 1010.4 10.6 8.7
2016-May-20 06:00N 53°36' W 004°54'7 7.1 1010.1 10.5 9.0
2016-May-20 05:00N 53°36' W 004°42'4 3.6 1009.0 10.3 8.9
2016-May-20 04:00N 53°36' W 004°36'9 9.3 1009.0 10.7 8.9
2016-May-20 03:00N 53°42' W 004°48'1312.5 1008.1 11.0 8.8
2016-May-20 02:00N 53°54' W 004°54'1110.6 1008.1 11.0 9.0
2016-May-20 01:00N 53°54' W 004°36'7 7.1 1008.1 10.7 8.7
2016-May-20 00:00N 53°54' W 004°24'1110.6 1007.7 11.0 8.9
2016-May-19 23:00N 53°54' W 004°06'1212.0 1007.7 10.6 9.0
2016-May-19 22:00N 53°42' W 004°06'7 7.0 1008.0 10.8 9.6
2016-May-19 21:00N 53°36' W 004°12'7 7.1 1008.0 10.4 9.7
2016-May-19 20:00N 53°36' W 004°24'4 3.6 1007.5 10.5 9.8
2016-May-19 19:00N 53°36' W 004°18'7 7.1 1006.6 11.010.4
2016-May-19 18:00N 53°36' W 004°06'6 6.0 1006.8 11.210.3
2016-May-19 17:00N 53°42' W 004°06'7 7.1 1006.7 11.310.2
2016-May-19 16:00N 53°42' W 003°54'   1006.7 11.3 9.8
Track history (hours):
 
Tides and Currents Weather Stations Pressure Air Temp Water Temp Dewpoint Dewpoint Depression Visibility Wind Speed Wind Dir Waves Ship Positions

Callsign AMOUK29 (name unknown)

Last reported at 2016-May-28 07:00 UTC. Time now 2016-May-28 08:03 UTC.
Position N 54°36' W 005°54'.

Barometer 1017.8 mb
Air temperature 12.4 ° C
Dewpoint 9.6 ° C

Date/timePositionNaut miles runAvg speedWind from/ knotsBaromVisibWave heightAir tempDewpointWater temp
2016-May-28 07:00N 54°36' W 005°54'0 0.0 1017.8 12.4 9.6
2016-May-28 05:00N 54°36' W 005°54'0 0.0 1017.7 11.4 9.1
2016-May-28 04:00N 54°36' W 005°54'0 0.0 1017.7 10.6 8.6
2016-May-28 03:00N 54°36' W 005°54'0 0.0 1017.9 10.6 8.9
2016-May-28 02:00N 54°36' W 005°54'0 0.0 1018.1 11.4 9.5
2016-May-28 01:00N 54°36' W 005°54'0 0.0 1018.3 11.7 9.6
2016-May-28 00:00N 54°36' W 005°54'0 0.0 1018.6 11.7 9.7
2016-May-27 23:00N 54°36' W 005°54'0 0.0 1018.8 12.0 9.9
2016-May-27 22:00N 54°36' W 005°54'0 0.0 1019.0 12.1 9.8
2016-May-27 19:00N 54°36' W 005°54'0 0.0 1018.6 14.2 9.2
2016-May-27 18:00N 54°36' W 005°54'0 0.0 1018.7 13.8 9.3
2016-May-27 17:00N 54°36' W 005°54'0 0.0 1018.4 13.4 9.2
2016-May-27 16:00N 54°36' W 005°54'0 0.0 1018.4 14.0 9.6
2016-May-27 15:00N 54°36' W 005°54'0 0.0 1018.5 14.010.1
2016-May-27 14:00N 54°36' W 005°54'0 0.0 1018.8 13.9 9.9
2016-May-27 13:00N 54°36' W 005°54'0 0.0 1019.1 13.4 9.4
2016-May-27 12:00N 54°36' W 005°54'0 0.0 1019.1 14.0 9.7
2016-May-27 11:00N 54°36' W 005°54'0 0.0 1019.2 12.5 9.8
2016-May-27 10:00N 54°36' W 005°54'0 0.0 1019.3 11.610.5
2016-May-27 09:00N 54°36' W 005°54'0 0.0 1019.2 11.110.2
2016-May-27 08:00N 54°36' W 005°54'0 0.0 1018.8 11.310.3
2016-May-27 07:00N 54°36' W 005°54'0 0.0 1018.6 10.7 9.6
2016-May-27 06:00N 54°36' W 005°54'0 0.0 1018.3 10.4 9.2
2016-May-27 05:00N 54°36' W 005°54'0 0.0 1018.0 10.4 9.3
2016-May-27 04:00N 54°36' W 005°54'0 0.0 1017.9 10.3 9.2
2016-May-27 03:00N 54°36' W 005°54'0 0.0 1017.8 10.6 9.3
2016-May-27 02:00N 54°36' W 005°54'0 0.0 1017.9 10.5 9.6
2016-May-27 01:00N 54°36' W 005°54'0 0.0 1018.0 10.6 9.7
2016-May-27 00:00N 54°36' W 005°54'0 0.0 1018.1 10.4 9.3
2016-May-26 23:00N 54°36' W 005°54'0 0.0 1018.2 10.6 9.4
2016-May-26 22:00N 54°36' W 005°54'0 0.0 1018.2 10.4 9.1
2016-May-26 21:00N 54°36' W 005°54'0 0.0 1018.2 10.6 8.9
2016-May-26 20:00N 54°36' W 005°54'0 0.0 1017.9 10.6 8.9
2016-May-26 19:00N 54°36' W 005°54'0 0.0 1017.7 10.3 8.7
2016-May-26 18:00N 54°36' W 005°54'0 0.0 1017.7 10.5 8.9
2016-May-26 17:00N 54°36' W 005°54'0 0.0 1017.8 10.8 8.8
2016-May-26 16:00N 54°36' W 005°54'0 0.0 1017.9 10.5 8.9
2016-May-26 15:00N 54°36' W 005°54'0 0.0 1018.1 10.7 9.1
2016-May-26 13:00N 54°36' W 005°54'0 0.0 1018.3 10.6 8.5
2016-May-26 12:00N 54°36' W 005°54'0 0.0 1018.4 10.7 7.8
2016-May-26 11:00N 54°36' W 005°54'0 0.0 1018.4 10.7 7.5
2016-May-26 10:00N 54°36' W 005°54'0 0.0 1018.6 10.8 7.3
2016-May-26 09:00N 54°36' W 005°54'0 0.0 1018.6 10.5 7.6
2016-May-26 08:00N 54°36' W 005°54'0 0.0 1018.7 10.3 7.4
2016-May-26 07:00N 54°36' W 005°54'0 0.0 1018.7 10.6 7.7
2016-May-26 06:00N 54°36' W 005°54'0 0.0 1018.7 10.1 7.4
2016-May-26 05:00N 54°36' W 005°54'0 0.0 1018.8 9.3 7.5
2016-May-26 04:00N 54°36' W 005°54'0 0.0 1018.7 9.7 6.8
2016-May-26 03:00N 54°36' W 005°54'0 0.0 1018.9 10.0 6.7
2016-May-26 02:00N 54°36' W 005°54'0 0.0 1018.8 10.6 6.5
2016-May-26 01:00N 54°36' W 005°54'0 0.0 1019.0 11.0 5.7
2016-May-26 00:00N 54°36' W 005°54'0 0.0 1019.5 11.1 4.7
2016-May-25 23:00N 54°36' W 005°54'0 0.0 1019.9 11.1 4.5
2016-May-25 21:00N 54°36' W 005°54'0 0.0 1020.4 11.8 3.7
2016-May-25 20:00N 54°36' W 005°54'0 0.0 1020.3 11.7 4.1
2016-May-25 18:00N 54°36' W 005°54'0 0.0 1020.5 12.4 5.4
2016-May-25 17:00N 54°36' W 005°54'0 0.0 1020.5 12.3 4.2
2016-May-25 16:00N 54°36' W 005°54'0 0.0 1021.1 11.6 4.0
2016-May-25 15:00N 54°36' W 005°54'0 0.0 1021.6 11.3 3.7
2016-May-25 14:00N 54°36' W 005°54'0 0.0 1022.0 11.2 2.0
2016-May-25 13:00N 54°36' W 005°54'0 0.0 1022.5 10.4 2.1
2016-May-25 12:00N 54°36' W 005°54'7 6.9 1022.8 10.9 2.6
2016-May-25 11:00N 54°42' W 005°48'7 6.9 1023.3 8.8 3.2
2016-May-25 10:00N 54°42' W 005°36'6 6.0 1023.7 9.2 2.6
2016-May-25 09:00N 54°48' W 005°36'6 6.0 1023.7 7.8 2.6
2016-May-25 08:00N 54°42' W 005°36'3 3.5 1023.7 7.9 2.4
2016-May-25 07:00N 54°42' W 005°42'7 6.9 1024.1 8.7 2.6
2016-May-25 06:00N 54°42' W 005°30'9 9.2 1024.3 9.4 1.7
2016-May-25 05:00N 54°48' W 005°18'3 3.5 1024.3 9.2 2.0
2016-May-25 04:00N 54°48' W 005°12'7 6.9 1024.2 8.9 2.8
2016-May-25 03:00N 54°42' W 005°06'0 0.0 1024.3 8.4 3.7
2016-May-25 02:00N 54°42' W 005°06'0 0.0 1024.1 8.7 3.6
2016-May-25 01:00N 54°42' W 005°06'3 3.5 1024.0 9.1 4.8
2016-May-25 00:00N 54°42' W 005°00'1212.5 1023.9 9.4 4.9
2016-May-24 23:00N 54°30' W 004°54'9 4.6 1023.5 10.3 5.5
2016-May-24 21:00N 54°24' W 005°06'7 6.9 1022.6 11.7 7.5
2016-May-24 20:00N 54°18' W 005°12'9 9.2 1022.5 12.1 8.2
2016-May-24 19:00N 54°24' W 005°24'6 6.0 1023.2 12.0 8.2
2016-May-24 18:00N 54°18' W 005°24'7 6.9 1023.0 11.4 9.5
2016-May-24 17:00N 54°12' W 005°18'0 0.0 1023.4 11.8 9.3
2016-May-24 16:00N 54°12' W 005°18'4 3.5 1023.3 12.210.2
2016-May-24 15:00N 54°12' W 005°24'7 7.0 1023.3 11.5 9.9
2016-May-24 14:00N 54°12' W 005°36'9 9.2 1023.7 11.410.1
2016-May-24 13:00N 54°06' W 005°24'4 3.5 1023.6 11.2 9.4
2016-May-24 12:00N 54°06' W 005°30'4 3.5 1023.7 11.0 9.3
2016-May-24 11:00N 54°06' W 005°36'6 6.0 1024.0 10.5 9.4
2016-May-24 10:00N 54°00' W 005°36'4 3.5 1024.0 10.7 9.4
2016-May-24 09:00N 54°00' W 005°42'6 6.0 1024.2 10.6 9.0
2016-May-24 08:00N 54°06' W 005°42'7 7.0 1024.4 9.7 8.1
2016-May-24 07:00N 54°06' W 005°54'1110.6 1024.5 10.9 8.0
2016-May-24 06:00N 54°06' W 005°36'7 7.0 1024.4 9.3 8.1
2016-May-24 05:00N 54°06' W 005°24'1110.6 1023.9 9.7 8.7
2016-May-24 04:00N 54°06' W 005°06'7 7.0 1023.5 9.9 9.0
2016-May-24 03:00N 54°06' W 004°54'0 0.0 1023.1 10.1 9.1
2016-May-24 02:00N 54°06' W 004°54'7 7.0 1023.2 10.2 9.0
2016-May-24 01:00N 54°06' W 005°06'6 6.0 1023.4 10.4 8.7
2016-May-24 00:00N 54°12' W 005°06'7 7.0 1023.4 10.1 8.7
2016-May-23 23:00N 54°12' W 005°18'6 6.0 1023.8 10.4 7.7
2016-May-23 22:00N 54°06' W 005°18'1110.6 1023.9 11.1 7.9
2016-May-23 21:00N 54°06' W 005°36'9 9.3 1024.0 11.0 8.7
2016-May-23 20:00N 54°00' W 005°48'7 7.1 1023.6 11.8 9.4
2016-May-23 19:00N 54°00' W 006°00'7 7.0 1023.4 12.6 8.2
2016-May-23 18:00N 53°54' W 006°06'0 0.0 1023.1 12.9 7.4
2016-May-23 17:00N 53°54' W 006°06'7 7.0 1023.0 13.2 7.7
2016-May-23 16:00N 53°48' W 006°00'7 7.1 1023.0 12.6 6.5
2016-May-23 15:00N 53°48' W 005°48'4 3.5 1022.7 11.9 7.1
2016-May-23 14:00N 53°48' W 005°42'4 3.5 1022.7 11.5 6.9
2016-May-23 13:00N 53°48' W 005°36'0 0.0 1022.5 11.1 6.9
2016-May-23 12:00N 53°48' W 005°36'0 0.0 1022.2 11.0 6.6
2016-May-23 11:00N 53°48' W 005°36'0 0.0 1021.9 11.6 6.5
2016-May-23 10:00N 53°48' W 005°36'0 0.0 1021.7 10.8 6.5
2016-May-23 09:00N 53°48' W 005°36'0 0.0 1021.1 10.1 6.3
2016-May-23 08:00N 53°48' W 005°36'0 0.0 1020.7 10.9 6.2
2016-May-23 07:00N 53°48' W 005°36'9 9.3 1020.0 9.6 6.2
2016-May-23 06:00N 53°54' W 005°24'0 0.0 1018.8 9.7 6.8
2016-May-23 05:00N 53°54' W 005°24'7 7.0 1018.3 9.7 6.5
2016-May-23 04:00N 53°48' W 005°18'9 9.3 1018.1 9.8 6.8
2016-May-23 03:00N 53°54' W 005°06'7 7.1 1017.0 9.7 7.3
2016-May-23 02:00N 53°54' W 005°18'7 7.1 1016.5 11.2 7.4
2016-May-23 01:00N 53°54' W 005°30'1110.6 1016.0 10.1 6.6
2016-May-23 00:00N 53°54' W 005°48'7 7.1 1015.6 10.1 6.6
2016-May-22 23:00N 53°54' W 006°00'0 0.0 1015.1 10.4 6.0
2016-May-22 22:00N 53°54' W 006°00'9 9.3 1014.0 11.0 5.9
2016-May-22 21:00N 53°48' W 005°48'7 7.1 1013.0 11.1 7.1
2016-May-22 20:00N 53°48' W 005°36'4 3.5 1012.3 11.3 8.1
2016-May-22 19:00N 53°48' W 005°42'7 7.1 1011.9 12.0 7.6
2016-May-22 18:00N 53°48' W 005°54'7 7.0 1011.1 12.1 8.5
2016-May-22 17:00N 53°54' W 006°00'7 3.5 1010.8 11.0 7.5
2016-May-22 15:00N 53°48' W 006°06'12 6.1 1009.2 12.2 7.6
2016-May-22 13:00N 53°42' W 005°48'4 3.6 1008.0 12.3 7.7
2016-May-22 12:00N 53°42' W 005°42'6 6.0 1007.7 11.2 8.3
2016-May-22 11:00N 53°36' W 005°42'7 7.1 1007.4 11.1 6.8
2016-May-22 10:00N 53°36' W 005°54'4 3.6 1007.5 12.0 7.9
2016-May-22 09:00N 53°36' W 006°00'6 3.0 1007.1 10.7 7.4
2016-May-22 07:00N 53°42' W 006°00'7 7.0 1005.4 9.0 6.9
2016-May-22 06:00N 53°36' W 005°54'4 3.6 1005.3 9.1 7.1
2016-May-22 05:00N 53°36' W 006°00'0 0.0 1004.6 8.8 6.6
2016-May-22 04:00N 53°36' W 006°00'1212.0 1004.1 8.8 7.1
2016-May-22 03:00N 53°24' W 006°00'7 7.0 1003.7 9.9 7.3
2016-May-22 02:00N 53°18' W 005°54'6 6.0 1003.3 10.7 7.6
2016-May-22 01:00N 53°24' W 005°54'6 6.0 1003.2 10.7 7.6
2016-May-22 00:00N 53°30' W 005°54'6 6.0 1002.6 10.9 8.5
2016-May-21 23:00N 53°36' W 005°54'9 9.3 1002.0 10.9 7.3
2016-May-21 22:00N 53°42' W 005°42'7 7.1 1001.9 10.8 6.7
2016-May-21 21:00N 53°42' W 005°30'7 7.1 1002.1 10.7 9.0
2016-May-21 20:00N 53°42' W 005°18'7 7.0 1002.3 11.1 9.4
2016-May-21 19:00N 53°36' W 005°24'7 7.1 1002.1 11.6 9.5
2016-May-21 18:00N 53°36' W 005°36'7 7.1 1001.7 11.2 9.4
2016-May-21 17:00N 53°36' W 005°48'6 3.0 1001.2 11.2 8.9
2016-May-21 15:00N 53°30' W 005°48'9 9.3 1001.4 12.0 9.9
2016-May-21 14:00N 53°24' W 006°00'6 6.0 1000.8 12.6 9.4
2016-May-21 13:00N 53°18' W 006°00'7 7.0 1000.2 12.810.1
2016-May-21 12:00N 53°24' W 005°54'4 3.6 1000.1 11.5 9.2
2016-May-21 11:00N 53°24' W 005°48'7 7.2 1000.5 11.4 9.1
2016-May-21 10:00N 53°24' W 005°36'7 7.2 1000.5 10.9 9.0
2016-May-21 09:00N 53°24' W 005°24'7 7.2 1000.8 11.010.2
2016-May-21 08:00N 53°24' W 005°12'4 3.6 1000.2 10.5 9.8
2016-May-21 07:00N 53°24' W 005°06'6 6.0 999.8 10.8 9.9
2016-May-21 06:00N 53°30' W 005°06'0 0.0 999.3 10.8 9.7
2016-May-21 05:00N 53°30' W 005°06'6 6.0 1000.2 11.4 9.9
2016-May-21 04:00N 53°24' W 005°06'7 7.2 1001.1 11.310.4
2016-May-21 03:00N 53°24' W 005°18'7 7.2 1001.2 10.810.0
2016-May-21 02:00N 53°24' W 005°30'7 7.0 1001.4 10.910.4
2016-May-21 01:00N 53°18' W 005°36'6 6.0 1001.1 10.610.3
2016-May-21 00:00N 53°24' W 005°36'1212.0 1001.9 10.2 9.9
2016-May-20 23:00N 53°36' W 005°36'7 7.1 1002.8 10.2 9.9
2016-May-20 22:00N 53°36' W 005°24'7 7.1 1004.1 10.510.1
2016-May-20 21:00N 53°36' W 005°12'4 3.6 1004.9 10.510.0
2016-May-20 20:00N 53°36' W 005°06'6 6.0 1005.9 10.5 9.9
2016-May-20 19:00N 53°42' W 005°06'0 0.0 1006.1 10.4 9.7
2016-May-20 18:00N 53°42' W 005°06'1212.0 1006.6 10.5 9.7
2016-May-20 17:00N 53°54' W 005°06'0 0.0 1007.3 10.5 9.6
2016-May-20 16:00N 53°54' W 005°06'7 7.1 1008.3 10.4 9.4
2016-May-20 15:00N 53°54' W 004°54'7 7.0 1009.8 11.7 9.5
2016-May-20 14:00N 53°48' W 004°48'9 9.3 1009.9 10.4 9.0
2016-May-20 13:00N 53°54' W 004°36'4 3.5 1010.3 10.6 8.7
2016-May-20 12:00N 53°54' W 004°30'4 3.5 1010.6 10.3 8.6
2016-May-20 11:00N 53°54' W 004°24'6 6.0 1011.0 10.4 8.8
2016-May-20 10:00N 53°48' W 004°24'7 7.0 1011.2 10.6 9.0
2016-May-20 09:00N 53°42' W 004°18'1110.7 1010.9 10.8 8.4
2016-May-20 08:00N 53°42' W 004°36'7 7.1 1010.6 11.2 8.9
2016-May-20 07:00N 53°42' W 004°48'7 7.0 1010.4 10.6 8.7
2016-May-20 06:00N 53°36' W 004°54'7 7.1 1010.1 10.5 9.0
2016-May-20 05:00N 53°36' W 004°42'4 3.6 1009.0 10.3 8.9
2016-May-20 04:00N 53°36' W 004°36'9 9.3 1009.0 10.7 8.9
2016-May-20 03:00N 53°42' W 004°48'1312.5 1008.1 11.0 8.8
2016-May-20 02:00N 53°54' W 004°54'1110.6 1008.1 11.0 9.0
2016-May-20 01:00N 53°54' W 004°36'7 7.1 1008.1 10.7 8.7
2016-May-20 00:00N 53°54' W 004°24'1110.6 1007.7 11.0 8.9
2016-May-19 23:00N 53°54' W 004°06'1212.0 1007.7 10.6 9.0
2016-May-19 22:00N 53°42' W 004°06'7 7.0 1008.0 10.8 9.6
2016-May-19 21:00N 53°36' W 004°12'7 7.1 1008.0 10.4 9.7
2016-May-19 20:00N 53°36' W 004°24'4 3.6 1007.5 10.5 9.8
2016-May-19 19:00N 53°36' W 004°18'7 7.1 1006.6 11.010.4
2016-May-19 18:00N 53°36' W 004°06'6 6.0 1006.8 11.210.3
2016-May-19 17:00N 53°42' W 004°06'7 7.1 1006.7 11.310.2
2016-May-19 16:00N 53°42' W 003°54'   1006.7 11.3 9.8

Dump ship's entire track history